Haywood, Kentucky
Current Conditions -  °F | °C
As of 7:15 PM on Tuesday 27 Jan 2015 (Local Time) from KGLW Reporting Station
Overcast Overcast  
Wind Chill: 27°   Ceiling: 3600
Heat Index: 32°   Visibility: 10mi
Dew Point: 29°   Wind: 5mph
Humidity: 88%   Direction: 10°N
Pressure: 30.2"   Gusts: NA
Location:  36.9602°N, 85.9175°W
Report Text: KGLW 280115Z AUTO 01004KT 10SM SCT014 OVC036 00/M02 A3020 RMK AO2 T00001017
Loading
Personal Weather Stations






























Interactive Weather Map New forecast layout! Learn more

10-Day Weather Forecast

Advertisements
Track Severe Weather on mobile